sensor_id;sensor_type;location;lat;lon;timestamp;temperature;humidity
5172;DHT22;2605;49.770;9.868;2023-07-31T00:00:07;17.00;99.90
5172;DHT22;2605;49.770;9.868;2023-07-31T00:02:34;17.00;99.90
5172;DHT22;2605;49.770;9.868;2023-07-31T00:05:00;17.00;99.90
5172;DHT22;2605;49.770;9.868;2023-07-31T00:07:26;16.90;99.90
5172;DHT22;2605;49.770;9.868;2023-07-31T00:09:51;16.90;99.90
5172;DHT22;2605;49.770;9.868;2023-07-31T00:12:19;16.90;99.90
5172;DHT22;2605;49.770;9.868;2023-07-31T00:14:44;16.90;99.90
5172;DHT22;2605;49.770;9.868;2023-07-31T00:17:10;16.80;99.90
5172;DHT22;2605;49.770;9.868;2023-07-31T00:19:36;16.80;99.90
5172;DHT22;2605;49.770;9.868;2023-07-31T00:22:01;16.80;99.90
5172;DHT22;2605;49.770;9.868;2023-07-31T00:24:27;16.70;99.90
5172;DHT22;2605;49.770;9.868;2023-07-31T00:26:52;16.70;99.90
5172;DHT22;2605;49.770;9.868;2023-07-31T00:29:18;16.70;99.90
5172;DHT22;2605;49.770;9.868;2023-07-31T00:31:43;16.60;99.90
5172;DHT22;2605;49.770;9.868;2023-07-31T00:34:12;16.60;99.90
5172;DHT22;2605;49.770;9.868;2023-07-31T00:36:37;16.60;99.90
5172;DHT22;2605;49.770;9.868;2023-07-31T00:39:03;16.50;99.90
5172;DHT22;2605;49.770;9.868;2023-07-31T00:41:30;16.50;99.90
5172;DHT22;2605;49.770;9.868;2023-07-31T00:43:55;16.50;99.90
5172;DHT22;2605;49.770;9.868;2023-07-31T00:46:21;16.50;99.90
5172;DHT22;2605;49.770;9.868;2023-07-31T00:48:46;16.50;99.90
5172;DHT22;2605;49.770;9.868;2023-07-31T00:51:12;16.40;99.90
5172;DHT22;2605;49.770;9.868;2023-07-31T00:53:38;16.40;99.90
5172;DHT22;2605;49.770;9.868;2023-07-31T00:56:05;16.40;99.90
5172;DHT22;2605;49.770;9.868;2023-07-31T00:58:31;16.30;99.90
5172;DHT22;2605;49.770;9.868;2023-07-31T01:00:57;16.30;99.90
5172;DHT22;2605;49.770;9.868;2023-07-31T01:03:22;16.30;99.90
5172;DHT22;2605;49.770;9.868;2023-07-31T01:06:09;16.30;99.90
5172;DHT22;2605;49.770;9.868;2023-07-31T01:08:51;16.30;99.90
5172;DHT22;2605;49.770;9.868;2023-07-31T01:11:25;16.20;99.90
5172;DHT22;2605;49.770;9.868;2023-07-31T01:13:51;16.20;99.90
5172;DHT22;2605;49.770;9.868;2023-07-31T01:16:17;16.20;99.90
5172;DHT22;2605;49.770;9.868;2023-07-31T01:18:42;16.20;99.90
5172;DHT22;2605;49.770;9.868;2023-07-31T01:21:21;16.20;99.90
5172;DHT22;2605;49.770;9.868;2023-07-31T01:24:07;16.10;99.90
5172;DHT22;2605;49.770;9.868;2023-07-31T01:26:34;16.20;99.90
5172;DHT22;2605;49.770;9.868;2023-07-31T01:29:07;16.20;99.90
5172;DHT22;2605;49.770;9.868;2023-07-31T01:31:35;16.10;99.90
5172;DHT22;2605;49.770;9.868;2023-07-31T01:34:02;16.20;99.90
5172;DHT22;2605;49.770;9.868;2023-07-31T01:36:31;16.10;99.90
5172;DHT22;2605;49.770;9.868;2023-07-31T01:39:01;16.10;99.90
5172;DHT22;2605;49.770;9.868;2023-07-31T01:41:27;16.10;99.90
5172;DHT22;2605;49.770;9.868;2023-07-31T01:43:52;16.10;99.90
5172;DHT22;2605;49.770;9.868;2023-07-31T01:46:18;16.10;99.90
5172;DHT22;2605;49.770;9.868;2023-07-31T01:48:44;16.00;99.90
5172;DHT22;2605;49.770;9.868;2023-07-31T01:51:09;16.00;99.90
5172;DHT22;2605;49.770;9.868;2023-07-31T01:53:35;16.00;99.90
5172;DHT22;2605;49.770;9.868;2023-07-31T01:56:00;16.00;99.90
5172;DHT22;2605;49.770;9.868;2023-07-31T01:58:26;16.00;99.90
5172;DHT22;2605;49.770;9.868;2023-07-31T02:00:51;16.00;99.90
5172;DHT22;2605;49.770;9.868;2023-07-31T02:03:17;16.00;99.90
5172;DHT22;2605;49.770;9.868;2023-07-31T02:05:46;16.00;99.90
5172;DHT22;2605;49.770;9.868;2023-07-31T02:08:12;16.00;99.90
5172;DHT22;2605;49.770;9.868;2023-07-31T02:10:38;16.00;99.90
5172;DHT22;2605;49.770;9.868;2023-07-31T02:13:03;16.00;99.90
5172;DHT22;2605;49.770;9.868;2023-07-31T02:15:32;15.90;99.90
5172;DHT22;2605;49.770;9.868;2023-07-31T02:17:58;15.90;99.90
5172;DHT22;2605;49.770;9.868;2023-07-31T02:20:23;15.90;99.90
5172;DHT22;2605;49.770;9.868;2023-07-31T02:22:49;15.80;99.90
5172;DHT22;2605;49.770;9.868;2023-07-31T02:25:15;15.80;99.90
5172;DHT22;2605;49.770;9.868;2023-07-31T02:27:40;15.80;99.90
5172;DHT22;2605;49.770;9.868;2023-07-31T02:30:06;15.70;99.90
5172;DHT22;2605;49.770;9.868;2023-07-31T02:32:32;15.70;99.90
5172;DHT22;2605;49.770;9.868;2023-07-31T02:34:57;15.70;99.90
5172;DHT22;2605;49.770;9.868;2023-07-31T02:37:23;15.60;99.90
5172;DHT22;2605;49.770;9.868;2023-07-31T02:39:49;15.50;99.90
5172;DHT22;2605;49.770;9.868;2023-07-31T02:42:14;15.50;99.90
5172;DHT22;2605;49.770;9.868;2023-07-31T02:44:40;15.40;99.90
5172;DHT22;2605;49.770;9.868;2023-07-31T02:47:06;15.50;99.90
5172;DHT22;2605;49.770;9.868;2023-07-31T02:49:31;15.50;99.90
5172;DHT22;2605;49.770;9.868;2023-07-31T02:51:57;15.50;99.90
5172;DHT22;2605;49.770;9.868;2023-07-31T02:54:22;15.50;99.90
5172;DHT22;2605;49.770;9.868;2023-07-31T02:56:48;15.50;99.90
5172;DHT22;2605;49.770;9.868;2023-07-31T02:59:14;15.50;99.90
5172;DHT22;2605;49.770;9.868;2023-07-31T03:01:40;15.50;99.90
5172;DHT22;2605;49.770;9.868;2023-07-31T03:04:05;15.50;99.90
5172;DHT22;2605;49.770;9.868;2023-07-31T03:06:31;15.50;99.90
5172;DHT22;2605;49.770;9.868;2023-07-31T03:08:59;15.40;99.90
5172;DHT22;2605;49.770;9.868;2023-07-31T03:11:25;15.40;99.90
5172;DHT22;2605;49.770;9.868;2023-07-31T03:13:50;15.40;99.90
5172;DHT22;2605;49.770;9.868;2023-07-31T03:16:16;15.40;99.90
5172;DHT22;2605;49.770;9.868;2023-07-31T03:18:41;15.40;99.90
5172;DHT22;2605;49.770;9.868;2023-07-31T03:21:07;15.40;99.90
5172;DHT22;2605;49.770;9.868;2023-07-31T03:23:32;15.40;99.90
5172;DHT22;2605;49.770;9.868;2023-07-31T03:25:59;15.50;99.90
5172;DHT22;2605;49.770;9.868;2023-07-31T03:28:25;15.50;99.90
5172;DHT22;2605;49.770;9.868;2023-07-31T03:30:51;15.50;99.90
5172;DHT22;2605;49.770;9.868;2023-07-31T03:33:17;15.50;99.90
5172;DHT22;2605;49.770;9.868;2023-07-31T03:35:42;15.50;99.90
5172;DHT22;2605;49.770;9.868;2023-07-31T03:38:08;15.60;99.90
5172;DHT22;2605;49.770;9.868;2023-07-31T03:40:33;15.60;99.90
5172;DHT22;2605;49.770;9.868;2023-07-31T03:42:59;15.60;99.90
5172;DHT22;2605;49.770;9.868;2023-07-31T03:45:24;15.60;99.90
5172;DHT22;2605;49.770;9.868;2023-07-31T03:47:50;15.60;99.90
5172;DHT22;2605;49.770;9.868;2023-07-31T03:50:15;15.60;99.90
5172;DHT22;2605;49.770;9.868;2023-07-31T03:52:41;15.50;99.90
5172;DHT22;2605;49.770;9.868;2023-07-31T03:55:07;15.50;99.90
5172;DHT22;2605;49.770;9.868;2023-07-31T03:57:33;15.50;99.90
5172;DHT22;2605;49.770;9.868;2023-07-31T03:59:58;15.50;99.90
5172;DHT22;2605;49.770;9.868;2023-07-31T04:02:24;15.50;99.90
5172;DHT22;2605;49.770;9.868;2023-07-31T04:04:49;15.50;99.90
5172;DHT22;2605;49.770;9.868;2023-07-31T04:07:15;15.50;99.90
5172;DHT22;2605;49.770;9.868;2023-07-31T04:09:40;15.50;99.90
5172;DHT22;2605;49.770;9.868;2023-07-31T04:12:06;15.50;99.90
5172;DHT22;2605;49.770;9.868;2023-07-31T04:14:32;15.50;99.90
5172;DHT22;2605;49.770;9.868;2023-07-31T04:16:57;15.50;99.90
5172;DHT22;2605;49.770;9.868;2023-07-31T04:19:23;15.50;99.90
5172;DHT22;2605;49.770;9.868;2023-07-31T04:21:48;15.60;99.90
5172;DHT22;2605;49.770;9.868;2023-07-31T04:24:14;15.60;99.90
5172;DHT22;2605;49.770;9.868;2023-07-31T04:26:39;15.70;99.90
5172;DHT22;2605;49.770;9.868;2023-07-31T04:29:05;15.70;99.90
5172;DHT22;2605;49.770;9.868;2023-07-31T04:31:31;15.80;99.90
5172;DHT22;2605;49.770;9.868;2023-07-31T04:33:56;15.80;99.90
5172;DHT22;2605;49.770;9.868;2023-07-31T04:36:21;15.80;99.90
5172;DHT22;2605;49.770;9.868;2023-07-31T04:38:47;15.90;99.90
5172;DHT22;2605;49.770;9.868;2023-07-31T04:41:12;15.90;99.90
5172;DHT22;2605;49.770;9.868;2023-07-31T04:43:38;16.00;99.90
5172;DHT22;2605;49.770;9.868;2023-07-31T04:46:05;16.00;99.90
5172;DHT22;2605;49.770;9.868;2023-07-31T04:48:31;16.00;99.90
5172;DHT22;2605;49.770;9.868;2023-07-31T04:50:56;16.10;99.90
5172;DHT22;2605;49.770;9.868;2023-07-31T04:53:22;16.10;99.90
5172;DHT22;2605;49.770;9.868;2023-07-31T04:55:47;16.20;99.90
5172;DHT22;2605;49.770;9.868;2023-07-31T04:58:13;16.20;99.90
5172;DHT22;2605;49.770;9.868;2023-07-31T05:00:38;16.30;99.90
5172;DHT22;2605;49.770;9.868;2023-07-31T05:03:04;16.20;99.90
5172;DHT22;2605;49.770;9.868;2023-07-31T05:05:30;16.30;99.90
5172;DHT22;2605;49.770;9.868;2023-07-31T05:07:58;16.30;99.90
5172;DHT22;2605;49.770;9.868;2023-07-31T05:10:24;16.20;99.90
5172;DHT22;2605;49.770;9.868;2023-07-31T05:12:49;16.30;99.90
5172;DHT22;2605;49.770;9.868;2023-07-31T05:15:15;16.30;99.90
5172;DHT22;2605;49.770;9.868;2023-07-31T05:17:40;16.40;99.90
5172;DHT22;2605;49.770;9.868;2023-07-31T05:20:06;16.40;99.90
5172;DHT22;2605;49.770;9.868;2023-07-31T05:22:32;16.50;99.90
5172;DHT22;2605;49.770;9.868;2023-07-31T05:24:58;16.50;99.90
5172;DHT22;2605;49.770;9.868;2023-07-31T05:27:26;16.50;99.90
5172;DHT22;2605;49.770;9.868;2023-07-31T05:29:52;16.60;99.90
5172;DHT22;2605;49.770;9.868;2023-07-31T05:32:20;16.60;99.90
5172;DHT22;2605;49.770;9.868;2023-07-31T05:34:45;16.80;99.90
5172;DHT22;2605;49.770;9.868;2023-07-31T05:37:11;17.00;99.90
5172;DHT22;2605;49.770;9.868;2023-07-31T05:39:40;17.20;99.90
5172;DHT22;2605;49.770;9.868;2023-07-31T05:42:06;17.30;99.90
5172;DHT22;2605;49.770;9.868;2023-07-31T05:44:31;17.20;99.90
5172;DHT22;2605;49.770;9.868;2023-07-31T05:46:56;17.20;99.90
5172;DHT22;2605;49.770;9.868;2023-07-31T05:49:25;17.20;99.90
5172;DHT22;2605;49.770;9.868;2023-07-31T05:51:50;17.20;99.90
5172;DHT22;2605;49.770;9.868;2023-07-31T05:54:16;17.30;99.90
5172;DHT22;2605;49.770;9.868;2023-07-31T05:56:41;17.30;99.90
5172;DHT22;2605;49.770;9.868;2023-07-31T05:59:08;17.30;99.90
5172;DHT22;2605;49.770;9.868;2023-07-31T06:01:34;17.40;99.90
5172;DHT22;2605;49.770;9.868;2023-07-31T06:03:59;17.40;99.90
5172;DHT22;2605;49.770;9.868;2023-07-31T06:06:25;17.50;99.90
5172;DHT22;2605;49.770;9.868;2023-07-31T06:08:50;17.50;99.90
5172;DHT22;2605;49.770;9.868;2023-07-31T06:11:16;17.60;99.90
5172;DHT22;2605;49.770;9.868;2023-07-31T06:13:42;17.70;99.90
5172;DHT22;2605;49.770;9.868;2023-07-31T06:16:09;17.80;99.90
5172;DHT22;2605;49.770;9.868;2023-07-31T06:18:35;17.70;99.90
5172;DHT22;2605;49.770;9.868;2023-07-31T06:21:00;17.90;99.90
5172;DHT22;2605;49.770;9.868;2023-07-31T06:23:26;18.00;99.90
5172;DHT22;2605;49.770;9.868;2023-07-31T06:25:51;18.10;99.90
5172;DHT22;2605;49.770;9.868;2023-07-31T06:28:17;18.00;99.90
5172;DHT22;2605;49.770;9.868;2023-07-31T06:30:42;17.90;99.90
5172;DHT22;2605;49.770;9.868;2023-07-31T06:33:09;17.90;99.90
5172;DHT22;2605;49.770;9.868;2023-07-31T06:35:34;17.90;99.90
5172;DHT22;2605;49.770;9.868;2023-07-31T06:38:00;18.20;99.90
5172;DHT22;2605;49.770;9.868;2023-07-31T06:40:26;18.20;99.90
5172;DHT22;2605;49.770;9.868;2023-07-31T06:42:52;18.20;99.90
5172;DHT22;2605;49.770;9.868;2023-07-31T06:45:21;18.30;99.90
5172;DHT22;2605;49.770;9.868;2023-07-31T06:47:47;18.40;99.90
5172;DHT22;2605;49.770;9.868;2023-07-31T06:50:12;18.40;99.90
5172;DHT22;2605;49.770;9.868;2023-07-31T06:52:38;18.40;99.90
5172;DHT22;2605;49.770;9.868;2023-07-31T06:55:16;18.30;99.90
5172;DHT22;2605;49.770;9.868;2023-07-31T06:57:44;18.50;99.90
5172;DHT22;2605;49.770;9.868;2023-07-31T07:00:10;18.60;99.90
5172;DHT22;2605;49.770;9.868;2023-07-31T07:02:35;18.60;99.90
5172;DHT22;2605;49.770;9.868;2023-07-31T07:05:01;18.80;99.90
5172;DHT22;2605;49.770;9.868;2023-07-31T07:07:26;18.90;99.90
5172;DHT22;2605;49.770;9.868;2023-07-31T07:09:52;18.70;99.90
5172;DHT22;2605;49.770;9.868;2023-07-31T07:12:18;19.00;99.90
5172;DHT22;2605;49.770;9.868;2023-07-31T07:14:44;19.10;99.90
5172;DHT22;2605;49.770;9.868;2023-07-31T07:17:12;19.10;99.90
5172;DHT22;2605;49.770;9.868;2023-07-31T07:19:40;19.30;99.90
5172;DHT22;2605;49.770;9.868;2023-07-31T07:22:06;19.30;99.90
5172;DHT22;2605;49.770;9.868;2023-07-31T07:24:31;19.50;99.90
5172;DHT22;2605;49.770;9.868;2023-07-31T07:26:56;19.40;99.90
5172;DHT22;2605;49.770;9.868;2023-07-31T07:29:22;19.40;99.90
5172;DHT22;2605;49.770;9.868;2023-07-31T07:31:48;19.30;99.90
5172;DHT22;2605;49.770;9.868;2023-07-31T07:34:16;19.30;99.90
5172;DHT22;2605;49.770;9.868;2023-07-31T07:36:41;19.30;99.90
5172;DHT22;2605;49.770;9.868;2023-07-31T07:39:09;19.30;99.90
5172;DHT22;2605;49.770;9.868;2023-07-31T07:41:37;19.30;99.90
5172;DHT22;2605;49.770;9.868;2023-07-31T07:44:03;19.30;99.90
5172;DHT22;2605;49.770;9.868;2023-07-31T07:46:29;19.60;99.90
5172;DHT22;2605;49.770;9.868;2023-07-31T07:48:54;20.00;99.90
5172;DHT22;2605;49.770;9.868;2023-07-31T07:51:20;20.00;99.90
5172;DHT22;2605;49.770;9.868;2023-07-31T07:53:45;20.30;99.90
5172;DHT22;2605;49.770;9.868;2023-07-31T07:56:11;20.70;99.90
5172;DHT22;2605;49.770;9.868;2023-07-31T07:58:36;20.90;99.90
5172;DHT22;2605;49.770;9.868;2023-07-31T08:01:02;21.00;99.90
5172;DHT22;2605;49.770;9.868;2023-07-31T08:03:27;20.80;99.90
5172;DHT22;2605;49.770;9.868;2023-07-31T08:05:58;20.50;99.90
5172;DHT22;2605;49.770;9.868;2023-07-31T08:08:24;20.20;99.90
5172;DHT22;2605;49.770;9.868;2023-07-31T08:10:49;20.20;99.90
5172;DHT22;2605;49.770;9.868;2023-07-31T08:13:15;20.00;99.90
5172;DHT22;2605;49.770;9.868;2023-07-31T08:15:43;20.00;99.90
5172;DHT22;2605;49.770;9.868;2023-07-31T08:18:09;20.00;99.90
5172;DHT22;2605;49.770;9.868;2023-07-31T08:20:36;20.00;99.90
5172;DHT22;2605;49.770;9.868;2023-07-31T08:23:02;20.00;99.90
5172;DHT22;2605;49.770;9.868;2023-07-31T08:25:27;20.00;99.90
5172;DHT22;2605;49.770;9.868;2023-07-31T08:27:53;20.20;99.90
5172;DHT22;2605;49.770;9.868;2023-07-31T08:30:19;20.10;99.90
5172;DHT22;2605;49.770;9.868;2023-07-31T08:32:44;20.10;99.90
5172;DHT22;2605;49.770;9.868;2023-07-31T08:35:10;20.00;99.90
5172;DHT22;2605;49.770;9.868;2023-07-31T08:37:37;20.00;99.90
5172;DHT22;2605;49.770;9.868;2023-07-31T08:40:03;20.20;99.90
5172;DHT22;2605;49.770;9.868;2023-07-31T08:42:29;20.40;99.90
5172;DHT22;2605;49.770;9.868;2023-07-31T08:44:56;20.30;99.90
5172;DHT22;2605;49.770;9.868;2023-07-31T08:47:22;20.40;99.90
5172;DHT22;2605;49.770;9.868;2023-07-31T08:49:49;20.60;99.90
5172;DHT22;2605;49.770;9.868;2023-07-31T08:52:15;21.00;99.90
5172;DHT22;2605;49.770;9.868;2023-07-31T08:54:41;21.20;99.90
5172;DHT22;2605;49.770;9.868;2023-07-31T08:57:07;21.10;99.90
5172;DHT22;2605;49.770;9.868;2023-07-31T08:59:34;20.70;99.90
5172;DHT22;2605;49.770;9.868;2023-07-31T09:02:05;20.60;99.90
5172;DHT22;2605;49.770;9.868;2023-07-31T09:04:31;20.70;99.90
5172;DHT22;2605;49.770;9.868;2023-07-31T09:07:02;21.30;99.90
5172;DHT22;2605;49.770;9.868;2023-07-31T09:09:30;21.70;99.90
5172;DHT22;2605;49.770;9.868;2023-07-31T09:11:56;21.70;99.90
5172;DHT22;2605;49.770;9.868;2023-07-31T09:14:25;21.60;99.90
5172;DHT22;2605;49.770;9.868;2023-07-31T09:16:54;21.80;99.90
5172;DHT22;2605;49.770;9.868;2023-07-31T09:19:27;22.10;99.90
5172;DHT22;2605;49.770;9.868;2023-07-31T09:21:53;21.90;99.90
5172;DHT22;2605;49.770;9.868;2023-07-31T09:24:29;21.70;99.90
5172;DHT22;2605;49.770;9.868;2023-07-31T09:26:56;21.80;99.90
5172;DHT22;2605;49.770;9.868;2023-07-31T09:29:22;22.10;99.90
5172;DHT22;2605;49.770;9.868;2023-07-31T09:31:48;22.40;99.90
5172;DHT22;2605;49.770;9.868;2023-07-31T09:34:14;22.90;99.90
5172;DHT22;2605;49.770;9.868;2023-07-31T09:36:41;22.90;99.90
5172;DHT22;2605;49.770;9.868;2023-07-31T09:39:11;23.20;99.90
5172;DHT22;2605;49.770;9.868;2023-07-31T09:41:38;23.00;99.90
5172;DHT22;2605;49.770;9.868;2023-07-31T09:44:04;23.00;99.90
5172;DHT22;2605;49.770;9.868;2023-07-31T09:46:30;22.90;99.90
5172;DHT22;2605;49.770;9.868;2023-07-31T09:49:12;22.90;99.90
5172;DHT22;2605;49.770;9.868;2023-07-31T09:51:39;22.70;99.90
5172;DHT22;2605;49.770;9.868;2023-07-31T09:54:15;22.60;99.90
5172;DHT22;2605;49.770;9.868;2023-07-31T09:59:11;22.00;99.90
5172;DHT22;2605;49.770;9.868;2023-07-31T10:01:37;21.90;99.90
5172;DHT22;2605;49.770;9.868;2023-07-31T10:04:05;21.60;99.90
5172;DHT22;2605;49.770;9.868;2023-07-31T10:06:30;22.00;99.90
5172;DHT22;2605;49.770;9.868;2023-07-31T10:08:57;22.30;99.90
5172;DHT22;2605;49.770;9.868;2023-07-31T10:11:25;22.10;99.90
5172;DHT22;2605;49.770;9.868;2023-07-31T10:13:53;21.70;99.90
5172;DHT22;2605;49.770;9.868;2023-07-31T10:16:20;21.40;99.90
5172;DHT22;2605;49.770;9.868;2023-07-31T10:18:47;21.40;99.90
5172;DHT22;2605;49.770;9.868;2023-07-31T10:21:14;21.20;99.90
5172;DHT22;2605;49.770;9.868;2023-07-31T10:23:40;21.10;99.90
5172;DHT22;2605;49.770;9.868;2023-07-31T10:26:07;21.20;99.90
5172;DHT22;2605;49.770;9.868;2023-07-31T10:28:33;21.00;99.90
5172;DHT22;2605;49.770;9.868;2023-07-31T10:31:01;21.30;99.90
5172;DHT22;2605;49.770;9.868;2023-07-31T10:33:27;21.40;99.90
5172;DHT22;2605;49.770;9.868;2023-07-31T10:36:12;21.40;99.90
5172;DHT22;2605;49.770;9.868;2023-07-31T10:38:37;21.60;99.90
5172;DHT22;2605;49.770;9.868;2023-07-31T10:41:09;21.80;99.90
5172;DHT22;2605;49.770;9.868;2023-07-31T10:43:39;21.80;99.90
5172;DHT22;2605;49.770;9.868;2023-07-31T10:46:08;22.10;99.90
5172;DHT22;2605;49.770;9.868;2023-07-31T10:48:35;22.20;99.90
5172;DHT22;2605;49.770;9.868;2023-07-31T10:51:10;22.20;99.90
5172;DHT22;2605;49.770;9.868;2023-07-31T10:53:37;22.30;99.90
5172;DHT22;2605;49.770;9.868;2023-07-31T10:56:05;22.70;99.90
5172;DHT22;2605;49.770;9.868;2023-07-31T10:58:32;23.20;99.90
5172;DHT22;2605;49.770;9.868;2023-07-31T11:01:02;23.30;99.90
5172;DHT22;2605;49.770;9.868;2023-07-31T11:03:48;23.10;99.90
5172;DHT22;2605;49.770;9.868;2023-07-31T11:06:15;23.20;99.90
5172;DHT22;2605;49.770;9.868;2023-07-31T11:08:45;23.60;99.90
5172;DHT22;2605;49.770;9.868;2023-07-31T11:11:13;23.40;99.90
5172;DHT22;2605;49.770;9.868;2023-07-31T11:13:50;23.40;99.90
5172;DHT22;2605;49.770;9.868;2023-07-31T11:16:18;22.80;99.90
5172;DHT22;2605;49.770;9.868;2023-07-31T11:18:45;22.60;99.90
5172;DHT22;2605;49.770;9.868;2023-07-31T11:21:17;22.60;99.90
5172;DHT22;2605;49.770;9.868;2023-07-31T11:23:47;22.70;99.90
5172;DHT22;2605;49.770;9.868;2023-07-31T11:26:13;22.50;99.90
5172;DHT22;2605;49.770;9.868;2023-07-31T11:28:39;22.70;99.90
5172;DHT22;2605;49.770;9.868;2023-07-31T11:31:09;22.70;99.90
5172;DHT22;2605;49.770;9.868;2023-07-31T11:33:34;22.80;99.90
5172;DHT22;2605;49.770;9.868;2023-07-31T11:36:00;22.80;99.90
5172;DHT22;2605;49.770;9.868;2023-07-31T11:38:30;23.00;99.90
5172;DHT22;2605;49.770;9.868;2023-07-31T11:41:01;22.90;99.90
5172;DHT22;2605;49.770;9.868;2023-07-31T11:43:28;22.70;99.90
5172;DHT22;2605;49.770;9.868;2023-07-31T11:45:58;22.50;99.90
5172;DHT22;2605;49.770;9.868;2023-07-31T11:48:27;22.70;99.90
5172;DHT22;2605;49.770;9.868;2023-07-31T11:50:54;23.00;99.90
5172;DHT22;2605;49.770;9.868;2023-07-31T11:53:33;22.90;99.90
5172;DHT22;2605;49.770;9.868;2023-07-31T11:56:01;22.70;99.90
5172;DHT22;2605;49.770;9.868;2023-07-31T11:58:31;22.90;99.90
5172;DHT22;2605;49.770;9.868;2023-07-31T12:00:56;22.90;99.90
5172;DHT22;2605;49.770;9.868;2023-07-31T12:03:23;23.60;99.90
5172;DHT22;2605;49.770;9.868;2023-07-31T12:05:49;23.50;99.90
5172;DHT22;2605;49.770;9.868;2023-07-31T12:08:14;23.40;99.90
5172;DHT22;2605;49.770;9.868;2023-07-31T12:10:41;23.50;99.90
5172;DHT22;2605;49.770;9.868;2023-07-31T12:13:09;23.30;99.90
5172;DHT22;2605;49.770;9.868;2023-07-31T12:15:43;23.60;99.90
5172;DHT22;2605;49.770;9.868;2023-07-31T12:18:10;23.60;99.90
5172;DHT22;2605;49.770;9.868;2023-07-31T12:20:40;23.90;99.90
5172;DHT22;2605;49.770;9.868;2023-07-31T12:23:06;24.10;99.90
5172;DHT22;2605;49.770;9.868;2023-07-31T12:25:32;23.90;99.90
5172;DHT22;2605;49.770;9.868;2023-07-31T12:28:04;24.30;99.90
5172;DHT22;2605;49.770;9.868;2023-07-31T12:30:34;24.10;99.90
5172;DHT22;2605;49.770;9.868;2023-07-31T12:33:10;23.90;99.90
5172;DHT22;2605;49.770;9.868;2023-07-31T12:35:38;24.10;99.90
5172;DHT22;2605;49.770;9.868;2023-07-31T12:38:05;24.10;99.90
5172;DHT22;2605;49.770;9.868;2023-07-31T12:40:31;24.40;99.90
5172;DHT22;2605;49.770;9.868;2023-07-31T12:42:57;24.50;99.90
5172;DHT22;2605;49.770;9.868;2023-07-31T12:45:23;24.00;99.90
5172;DHT22;2605;49.770;9.868;2023-07-31T12:47:48;23.60;99.90
5172;DHT22;2605;49.770;9.868;2023-07-31T12:50:14;23.60;99.90
5172;DHT22;2605;49.770;9.868;2023-07-31T12:52:39;23.20;99.90
5172;DHT22;2605;49.770;9.868;2023-07-31T12:55:05;23.10;99.90
5172;DHT22;2605;49.770;9.868;2023-07-31T12:57:31;23.30;99.90
5172;DHT22;2605;49.770;9.868;2023-07-31T12:59:56;22.90;99.90
5172;DHT22;2605;49.770;9.868;2023-07-31T13:02:22;22.60;99.90
5172;DHT22;2605;49.770;9.868;2023-07-31T13:04:49;22.60;99.90
5172;DHT22;2605;49.770;9.868;2023-07-31T13:07:15;22.50;99.90
5172;DHT22;2605;49.770;9.868;2023-07-31T13:09:40;22.70;99.90
5172;DHT22;2605;49.770;9.868;2023-07-31T13:12:06;23.20;99.90
5172;DHT22;2605;49.770;9.868;2023-07-31T13:14:32;23.30;99.90
5172;DHT22;2605;49.770;9.868;2023-07-31T13:16:57;23.30;99.90
5172;DHT22;2605;49.770;9.868;2023-07-31T13:19:23;23.30;99.90
5172;DHT22;2605;49.770;9.868;2023-07-31T13:21:48;23.60;99.90
5172;DHT22;2605;49.770;9.868;2023-07-31T13:24:14;23.80;99.90
5172;DHT22;2605;49.770;9.868;2023-07-31T13:26:39;23.90;99.90
5172;DHT22;2605;49.770;9.868;2023-07-31T13:29:05;24.00;99.90
5172;DHT22;2605;49.770;9.868;2023-07-31T13:31:30;24.20;99.90
5172;DHT22;2605;49.770;9.868;2023-07-31T13:33:56;24.30;99.90
5172;DHT22;2605;49.770;9.868;2023-07-31T13:36:21;24.00;99.90
5172;DHT22;2605;49.770;9.868;2023-07-31T13:38:47;23.60;99.90
5172;DHT22;2605;49.770;9.868;2023-07-31T13:41:12;23.80;99.90
5172;DHT22;2605;49.770;9.868;2023-07-31T13:43:37;23.70;99.90
5172;DHT22;2605;49.770;9.868;2023-07-31T13:46:04;23.80;99.90
5172;DHT22;2605;49.770;9.868;2023-07-31T13:48:35;23.90;99.90
5172;DHT22;2605;49.770;9.868;2023-07-31T13:51:00;24.10;99.90
5172;DHT22;2605;49.770;9.868;2023-07-31T13:53:26;24.20;99.90
5172;DHT22;2605;49.770;9.868;2023-07-31T13:55:51;24.10;99.90
5172;DHT22;2605;49.770;9.868;2023-07-31T13:58:17;23.90;99.90
5172;DHT22;2605;49.770;9.868;2023-07-31T14:00:43;23.80;99.90
5172;DHT22;2605;49.770;9.868;2023-07-31T14:03:08;23.70;99.90
5172;DHT22;2605;49.770;9.868;2023-07-31T14:05:35;23.70;99.90
5172;DHT22;2605;49.770;9.868;2023-07-31T14:08:00;23.80;99.90
5172;DHT22;2605;49.770;9.868;2023-07-31T14:10:26;23.60;99.90
5172;DHT22;2605;49.770;9.868;2023-07-31T14:12:51;23.70;99.90
5172;DHT22;2605;49.770;9.868;2023-07-31T14:15:17;23.70;99.90
5172;DHT22;2605;49.770;9.868;2023-07-31T14:17:42;23.60;99.90
5172;DHT22;2605;49.770;9.868;2023-07-31T14:20:08;23.30;99.90
5172;DHT22;2605;49.770;9.868;2023-07-31T14:22:34;22.90;99.90
5172;DHT22;2605;49.770;9.868;2023-07-31T14:25:00;22.60;99.90
5172;DHT22;2605;49.770;9.868;2023-07-31T14:27:25;22.20;99.90
5172;DHT22;2605;49.770;9.868;2023-07-31T14:29:51;22.50;99.90
5172;DHT22;2605;49.770;9.868;2023-07-31T14:32:17;23.00;99.90
5172;DHT22;2605;49.770;9.868;2023-07-31T14:34:42;23.10;99.90
5172;DHT22;2605;49.770;9.868;2023-07-31T14:37:07;23.50;99.90
5172;DHT22;2605;49.770;9.868;2023-07-31T14:39:33;23.60;99.90
5172;DHT22;2605;49.770;9.868;2023-07-31T14:41:59;23.80;99.90
5172;DHT22;2605;49.770;9.868;2023-07-31T14:44:24;23.70;99.90
5172;DHT22;2605;49.770;9.868;2023-07-31T14:46:49;23.30;99.90
5172;DHT22;2605;49.770;9.868;2023-07-31T14:49:15;23.20;99.90
5172;DHT22;2605;49.770;9.868;2023-07-31T14:51:43;22.90;99.90
5172;DHT22;2605;49.770;9.868;2023-07-31T14:54:09;22.90;99.90
5172;DHT22;2605;49.770;9.868;2023-07-31T14:56:34;22.70;99.90
5172;DHT22;2605;49.770;9.868;2023-07-31T14:59:05;22.70;99.90
5172;DHT22;2605;49.770;9.868;2023-07-31T15:01:33;22.60;99.90
5172;DHT22;2605;49.770;9.868;2023-07-31T15:03:58;22.90;99.90
5172;DHT22;2605;49.770;9.868;2023-07-31T15:06:24;22.70;99.90
5172;DHT22;2605;49.770;9.868;2023-07-31T15:08:49;22.80;99.90
5172;DHT22;2605;49.770;9.868;2023-07-31T15:11:15;23.10;99.90
5172;DHT22;2605;49.770;9.868;2023-07-31T15:13:41;23.20;99.90
5172;DHT22;2605;49.770;9.868;2023-07-31T15:16:06;23.50;99.90
5172;DHT22;2605;49.770;9.868;2023-07-31T15:18:32;23.80;99.90
5172;DHT22;2605;49.770;9.868;2023-07-31T15:20:57;23.90;99.90
5172;DHT22;2605;49.770;9.868;2023-07-31T15:23:23;23.80;99.90
5172;DHT22;2605;49.770;9.868;2023-07-31T15:25:49;23.70;99.90
5172;DHT22;2605;49.770;9.868;2023-07-31T15:28:14;24.10;99.90
5172;DHT22;2605;49.770;9.868;2023-07-31T15:30:40;23.90;99.90
5172;DHT22;2605;49.770;9.868;2023-07-31T15:33:06;24.00;99.90
5172;DHT22;2605;49.770;9.868;2023-07-31T15:35:31;24.20;99.90
5172;DHT22;2605;49.770;9.868;2023-07-31T15:37:57;24.40;99.90
5172;DHT22;2605;49.770;9.868;2023-07-31T15:40:22;24.20;99.90
5172;DHT22;2605;49.770;9.868;2023-07-31T15:42:48;23.70;99.90
5172;DHT22;2605;49.770;9.868;2023-07-31T15:45:13;23.70;99.90
5172;DHT22;2605;49.770;9.868;2023-07-31T15:47:39;23.60;99.90
5172;DHT22;2605;49.770;9.868;2023-07-31T15:50:05;23.60;99.90
5172;DHT22;2605;49.770;9.868;2023-07-31T15:52:30;23.30;99.90
5172;DHT22;2605;49.770;9.868;2023-07-31T15:54:56;23.20;99.90
5172;DHT22;2605;49.770;9.868;2023-07-31T15:57:21;22.90;99.90
5172;DHT22;2605;49.770;9.868;2023-07-31T15:59:47;22.80;99.90